sensor_id;sensor_type;location;lat;lon;timestamp;pressure;altitude;pressure_sealevel;temperature
18219;BMP180;9234;49.344;11.120;2023-04-01T00:01:14;96037.00;;;10.10
18219;BMP180;9234;49.344;11.120;2023-04-01T00:03:45;96053.00;;;10.10
18219;BMP180;9234;49.344;11.120;2023-04-01T00:06:16;96039.00;;;10.20
18219;BMP180;9234;49.344;11.120;2023-04-01T00:08:45;96047.00;;;10.20
18219;BMP180;9234;49.344;11.120;2023-04-01T00:11:13;96050.00;;;10.10
18219;BMP180;9234;49.344;11.120;2023-04-01T00:13:42;96040.00;;;10.10
18219;BMP180;9234;49.344;11.120;2023-04-01T00:16:11;96033.00;;;10.10
18219;BMP180;9234;49.344;11.120;2023-04-01T00:18:51;96030.00;;;10.10
18219;BMP180;9234;49.344;11.120;2023-04-01T00:21:21;96036.00;;;10.10
18219;BMP180;9234;49.344;11.120;2023-04-01T00:23:50;96033.00;;;10.10
18219;BMP180;9234;49.344;11.120;2023-04-01T00:26:19;96025.00;;;10.10
18219;BMP180;9234;49.344;11.120;2023-04-01T00:28:49;96047.00;;;10.10
18219;BMP180;9234;49.344;11.120;2023-04-01T00:31:18;96027.00;;;10.10
18219;BMP180;9234;49.344;11.120;2023-04-01T00:33:46;96040.00;;;10.10
18219;BMP180;9234;49.344;11.120;2023-04-01T00:36:19;96040.00;;;10.00
18219;BMP180;9234;49.344;11.120;2023-04-01T00:38:48;96031.00;;;10.00
18219;BMP180;9234;49.344;11.120;2023-04-01T00:41:19;96033.00;;;9.90
18219;BMP180;9234;49.344;11.120;2023-04-01T00:43:51;96034.00;;;9.90
18219;BMP180;9234;49.344;11.120;2023-04-01T00:46:19;96030.00;;;9.90
18219;BMP180;9234;49.344;11.120;2023-04-01T00:48:51;96030.00;;;9.90
18219;BMP180;9234;49.344;11.120;2023-04-01T00:51:26;96041.00;;;9.90
18219;BMP180;9234;49.344;11.120;2023-04-01T00:54:00;96031.00;;;9.90
18219;BMP180;9234;49.344;11.120;2023-04-01T00:56:34;96047.00;;;9.90
18219;BMP180;9234;49.344;11.120;2023-04-01T00:59:07;96030.00;;;9.90
18219;BMP180;9234;49.344;11.120;2023-04-01T01:01:38;96036.00;;;9.90
18219;BMP180;9234;49.344;11.120;2023-04-01T01:04:06;96036.00;;;9.90
18219;BMP180;9234;49.344;11.120;2023-04-01T01:06:46;96022.00;;;10.00
18219;BMP180;9234;49.344;11.120;2023-04-01T01:09:39;96025.00;;;10.00
18219;BMP180;9234;49.344;11.120;2023-04-01T01:12:14;96018.00;;;10.00
18219;BMP180;9234;49.344;11.120;2023-04-01T01:14:55;96022.00;;;10.00
18219;BMP180;9234;49.344;11.120;2023-04-01T01:17:44;96032.00;;;10.00
18219;BMP180;9234;49.344;11.120;2023-04-01T01:20:47;96023.00;;;10.00
18219;BMP180;9234;49.344;11.120;2023-04-01T01:24:17;96038.00;;;10.10
18219;BMP180;9234;49.344;11.120;2023-04-01T01:27:03;96021.00;;;10.10
18219;BMP180;9234;49.344;11.120;2023-04-01T01:30:01;96026.00;;;10.10
18219;BMP180;9234;49.344;11.120;2023-04-01T01:32:59;96015.00;;;10.10
18219;BMP180;9234;49.344;11.120;2023-04-01T01:35:36;96037.00;;;10.10
18219;BMP180;9234;49.344;11.120;2023-04-01T01:38:17;96015.00;;;10.10
18219;BMP180;9234;49.344;11.120;2023-04-01T01:40:57;96015.00;;;10.10
18219;BMP180;9234;49.344;11.120;2023-04-01T01:43:30;96016.00;;;10.10
18219;BMP180;9234;49.344;11.120;2023-04-01T01:46:06;96012.00;;;10.10
18219;BMP180;9234;49.344;11.120;2023-04-01T01:48:36;96005.00;;;10.20
18219;BMP180;9234;49.344;11.120;2023-04-01T01:51:07;96008.00;;;10.20
18219;BMP180;9234;49.344;11.120;2023-04-01T01:53:36;96020.00;;;10.10
18219;BMP180;9234;49.344;11.120;2023-04-01T01:56:05;96013.00;;;10.10
18219;BMP180;9234;49.344;11.120;2023-04-01T01:58:42;96016.00;;;10.10
18219;BMP180;9234;49.344;11.120;2023-04-01T02:01:18;96011.00;;;10.10
18219;BMP180;9234;49.344;11.120;2023-04-01T02:03:50;96010.00;;;10.10
18219;BMP180;9234;49.344;11.120;2023-04-01T02:06:24;96001.00;;;10.00
18219;BMP180;9234;49.344;11.120;2023-04-01T02:08:57;95992.00;;;10.00
18219;BMP180;9234;49.344;11.120;2023-04-01T02:11:30;96008.00;;;10.00
18219;BMP180;9234;49.344;11.120;2023-04-01T02:14:05;95999.00;;;10.10
18219;BMP180;9234;49.344;11.120;2023-04-01T02:16:40;96014.00;;;10.10
18219;BMP180;9234;49.344;11.120;2023-04-01T02:19:13;96009.00;;;10.00
18219;BMP180;9234;49.344;11.120;2023-04-01T02:21:44;96021.00;;;10.00
18219;BMP180;9234;49.344;11.120;2023-04-01T02:24:14;96017.00;;;10.00
18219;BMP180;9234;49.344;11.120;2023-04-01T02:26:45;96027.00;;;10.00
18219;BMP180;9234;49.344;11.120;2023-04-01T02:29:15;96011.00;;;10.00
18219;BMP180;9234;49.344;11.120;2023-04-01T02:31:45;96029.00;;;10.10
18219;BMP180;9234;49.344;11.120;2023-04-01T02:34:14;96014.00;;;10.10
18219;BMP180;9234;49.344;11.120;2023-04-01T02:36:44;96030.00;;;10.10
18219;BMP180;9234;49.344;11.120;2023-04-01T02:39:13;96034.00;;;10.00
18219;BMP180;9234;49.344;11.120;2023-04-01T02:41:44;96032.00;;;10.10
18219;BMP180;9234;49.344;11.120;2023-04-01T02:44:14;96043.00;;;10.00
18219;BMP180;9234;49.344;11.120;2023-04-01T02:46:43;96030.00;;;10.00
18219;BMP180;9234;49.344;11.120;2023-04-01T02:49:12;96035.00;;;10.00
18219;BMP180;9234;49.344;11.120;2023-04-01T02:51:40;96048.00;;;10.10
18219;BMP180;9234;49.344;11.120;2023-04-01T02:54:10;96043.00;;;10.10
18219;BMP180;9234;49.344;11.120;2023-04-01T02:56:39;96032.00;;;10.10
18219;BMP180;9234;49.344;11.120;2023-04-01T02:59:07;96027.00;;;10.10
18219;BMP180;9234;49.344;11.120;2023-04-01T03:01:35;96032.00;;;10.10
18219;BMP180;9234;49.344;11.120;2023-04-01T03:04:04;96045.00;;;10.10
18219;BMP180;9234;49.344;11.120;2023-04-01T03:06:32;96045.00;;;10.10
18219;BMP180;9234;49.344;11.120;2023-04-01T03:09:00;96047.00;;;10.10
18219;BMP180;9234;49.344;11.120;2023-04-01T03:11:30;96048.00;;;10.10
18219;BMP180;9234;49.344;11.120;2023-04-01T03:13:58;96051.00;;;10.10
18219;BMP180;9234;49.344;11.120;2023-04-01T03:16:27;96035.00;;;10.10
18219;BMP180;9234;49.344;11.120;2023-04-01T03:18:55;96057.00;;;10.10
18219;BMP180;9234;49.344;11.120;2023-04-01T03:21:26;96049.00;;;10.10
18219;BMP180;9234;49.344;11.120;2023-04-01T03:23:54;96044.00;;;10.10
18219;BMP180;9234;49.344;11.120;2023-04-01T03:26:22;96045.00;;;10.10
18219;BMP180;9234;49.344;11.120;2023-04-01T03:28:52;96049.00;;;10.20
18219;BMP180;9234;49.344;11.120;2023-04-01T03:31:21;96055.00;;;10.20
18219;BMP180;9234;49.344;11.120;2023-04-01T03:33:53;96063.00;;;10.10
18219;BMP180;9234;49.344;11.120;2023-04-01T03:36:22;96064.00;;;10.10
18219;BMP180;9234;49.344;11.120;2023-04-01T03:38:51;96065.00;;;10.10
18219;BMP180;9234;49.344;11.120;2023-04-01T03:41:25;96055.00;;;10.10
18219;BMP180;9234;49.344;11.120;2023-04-01T03:43:56;96052.00;;;10.10
18219;BMP180;9234;49.344;11.120;2023-04-01T03:46:24;96066.00;;;10.10
18219;BMP180;9234;49.344;11.120;2023-04-01T03:48:52;96064.00;;;10.10
18219;BMP180;9234;49.344;11.120;2023-04-01T03:51:21;96059.00;;;10.10
18219;BMP180;9234;49.344;11.120;2023-04-01T03:53:49;96057.00;;;10.10
18219;BMP180;9234;49.344;11.120;2023-04-01T03:56:18;96073.00;;;10.10
18219;BMP180;9234;49.344;11.120;2023-04-01T03:58:46;96058.00;;;10.10
18219;BMP180;9234;49.344;11.120;2023-04-01T04:01:18;96067.00;;;10.10
18219;BMP180;9234;49.344;11.120;2023-04-01T04:03:50;96065.00;;;10.10
18219;BMP180;9234;49.344;11.120;2023-04-01T04:06:20;96073.00;;;10.10
18219;BMP180;9234;49.344;11.120;2023-04-01T04:08:50;96074.00;;;10.10
18219;BMP180;9234;49.344;11.120;2023-04-01T04:11:20;96078.00;;;10.10
18219;BMP180;9234;49.344;11.120;2023-04-01T04:13:51;96084.00;;;10.10
18219;BMP180;9234;49.344;11.120;2023-04-01T04:16:23;96078.00;;;10.00
18219;BMP180;9234;49.344;11.120;2023-04-01T04:18:58;96084.00;;;10.00
18219;BMP180;9234;49.344;11.120;2023-04-01T04:21:26;96078.00;;;10.00
18219;BMP180;9234;49.344;11.120;2023-04-01T04:23:55;96090.00;;;10.00
18219;BMP180;9234;49.344;11.120;2023-04-01T04:26:23;96078.00;;;10.00
18219;BMP180;9234;49.344;11.120;2023-04-01T04:28:59;96086.00;;;10.00
18219;BMP180;9234;49.344;11.120;2023-04-01T04:31:29;96075.00;;;10.00
18219;BMP180;9234;49.344;11.120;2023-04-01T04:34:00;96078.00;;;10.00
18219;BMP180;9234;49.344;11.120;2023-04-01T04:36:32;96087.00;;;9.90
18219;BMP180;9234;49.344;11.120;2023-04-01T04:39:00;96081.00;;;9.90
18219;BMP180;9234;49.344;11.120;2023-04-01T04:41:31;96089.00;;;9.90
18219;BMP180;9234;49.344;11.120;2023-04-01T04:44:03;96077.00;;;9.90
18219;BMP180;9234;49.344;11.120;2023-04-01T04:46:33;96071.00;;;9.80
18219;BMP180;9234;49.344;11.120;2023-04-01T04:49:14;96080.00;;;9.90
18219;BMP180;9234;49.344;11.120;2023-04-01T04:51:42;96082.00;;;9.90
18219;BMP180;9234;49.344;11.120;2023-04-01T04:54:11;96084.00;;;9.80
18219;BMP180;9234;49.344;11.120;2023-04-01T04:56:55;96074.00;;;9.90
18219;BMP180;9234;49.344;11.120;2023-04-01T04:59:25;96083.00;;;9.90
18219;BMP180;9234;49.344;11.120;2023-04-01T05:02:17;96088.00;;;9.90
18219;BMP180;9234;49.344;11.120;2023-04-01T05:04:46;96078.00;;;9.90
18219;BMP180;9234;49.344;11.120;2023-04-01T05:07:15;96078.00;;;9.90
18219;BMP180;9234;49.344;11.120;2023-04-01T05:09:43;96083.00;;;9.90
18219;BMP180;9234;49.344;11.120;2023-04-01T05:12:12;96089.00;;;9.90
18219;BMP180;9234;49.344;11.120;2023-04-01T05:14:55;96086.00;;;9.80
18219;BMP180;9234;49.344;11.120;2023-04-01T05:17:25;96096.00;;;9.90
18219;BMP180;9234;49.344;11.120;2023-04-01T05:19:53;96095.00;;;9.90
18219;BMP180;9234;49.344;11.120;2023-04-01T05:22:21;96084.00;;;9.90
18219;BMP180;9234;49.344;11.120;2023-04-01T05:24:50;96094.00;;;10.00
18219;BMP180;9234;49.344;11.120;2023-04-01T05:27:19;96089.00;;;10.00
18219;BMP180;9234;49.344;11.120;2023-04-01T05:29:48;96091.00;;;10.00
18219;BMP180;9234;49.344;11.120;2023-04-01T05:32:47;96085.00;;;10.00
18219;BMP180;9234;49.344;11.120;2023-04-01T05:35:16;96081.00;;;10.00
18219;BMP180;9234;49.344;11.120;2023-04-01T05:37:44;96076.00;;;10.00
18219;BMP180;9234;49.344;11.120;2023-04-01T05:40:13;96086.00;;;10.10
18219;BMP180;9234;49.344;11.120;2023-04-01T05:42:41;96084.00;;;10.10
18219;BMP180;9234;49.344;11.120;2023-04-01T05:45:10;96078.00;;;10.00
18219;BMP180;9234;49.344;11.120;2023-04-01T05:48:08;96087.00;;;10.10
18219;BMP180;9234;49.344;11.120;2023-04-01T05:50:40;96078.00;;;10.10
18219;BMP180;9234;49.344;11.120;2023-04-01T05:53:10;96075.00;;;10.10
18219;BMP180;9234;49.344;11.120;2023-04-01T05:55:41;96089.00;;;10.10
18219;BMP180;9234;49.344;11.120;2023-04-01T05:58:10;96079.00;;;10.10
18219;BMP180;9234;49.344;11.120;2023-04-01T06:00:41;96087.00;;;10.20
18219;BMP180;9234;49.344;11.120;2023-04-01T06:03:10;96078.00;;;10.20
18219;BMP180;9234;49.344;11.120;2023-04-01T06:05:41;96078.00;;;10.20
18219;BMP180;9234;49.344;11.120;2023-04-01T06:08:12;96078.00;;;10.20
18219;BMP180;9234;49.344;11.120;2023-04-01T06:11:04;96080.00;;;10.30
18219;BMP180;9234;49.344;11.120;2023-04-01T06:13:58;96077.00;;;10.30
18219;BMP180;9234;49.344;11.120;2023-04-01T06:16:46;96085.00;;;10.40
18219;BMP180;9234;49.344;11.120;2023-04-01T06:19:34;96081.00;;;10.40
18219;BMP180;9234;49.344;11.120;2023-04-01T06:22:37;96091.00;;;10.50
18219;BMP180;9234;49.344;11.120;2023-04-01T06:28:15;96080.00;;;10.70
18219;BMP180;9234;49.344;11.120;2023-04-01T06:30:57;96082.00;;;10.70
18219;BMP180;9234;49.344;11.120;2023-04-01T06:33:51;96092.00;;;10.80
18219;BMP180;9234;49.344;11.120;2023-04-01T06:36:45;96087.00;;;10.80
18219;BMP180;9234;49.344;11.120;2023-04-01T06:39:45;96086.00;;;10.80
18219;BMP180;9234;49.344;11.120;2023-04-01T06:43:02;96098.00;;;10.90
18219;BMP180;9234;49.344;11.120;2023-04-01T06:45:59;96091.00;;;10.80
18219;BMP180;9234;49.344;11.120;2023-04-01T06:49:06;96086.00;;;10.90
18219;BMP180;9234;49.344;11.120;2023-04-01T06:52:16;96093.00;;;10.90
18219;BMP180;9234;49.344;11.120;2023-04-01T06:55:27;96070.00;;;11.10
18219;BMP180;9234;49.344;11.120;2023-04-01T06:58:21;96083.00;;;11.10
18219;BMP180;9234;49.344;11.120;2023-04-01T07:00:54;96067.00;;;11.20
18219;BMP180;9234;49.344;11.120;2023-04-01T07:03:32;96082.00;;;11.20
18219;BMP180;9234;49.344;11.120;2023-04-01T07:06:09;96075.00;;;11.30
18219;BMP180;9234;49.344;11.120;2023-04-01T07:08:49;96083.00;;;11.40
18219;BMP180;9234;49.344;11.120;2023-04-01T07:11:28;96084.00;;;11.50
18219;BMP180;9234;49.344;11.120;2023-04-01T07:14:26;96075.00;;;11.60
18219;BMP180;9234;49.344;11.120;2023-04-01T07:17:02;96078.00;;;11.70
18219;BMP180;9234;49.344;11.120;2023-04-01T07:19:42;96074.00;;;11.80
18219;BMP180;9234;49.344;11.120;2023-04-01T07:22:23;96080.00;;;11.70
18219;BMP180;9234;49.344;11.120;2023-04-01T07:25:13;96064.00;;;11.90
18219;BMP180;9234;49.344;11.120;2023-04-01T07:27:46;96064.00;;;12.00
18219;BMP180;9234;49.344;11.120;2023-04-01T07:30:18;96061.00;;;12.00
18219;BMP180;9234;49.344;11.120;2023-04-01T07:32:53;96061.00;;;12.10
18219;BMP180;9234;49.344;11.120;2023-04-01T07:35:28;96065.00;;;12.20
18219;BMP180;9234;49.344;11.120;2023-04-01T07:38:17;96071.00;;;12.20
18219;BMP180;9234;49.344;11.120;2023-04-01T07:40:57;96061.00;;;12.40
18219;BMP180;9234;49.344;11.120;2023-04-01T07:43:56;96083.00;;;12.50
18219;BMP180;9234;49.344;11.120;2023-04-01T07:46:56;96076.00;;;12.60
18219;BMP180;9234;49.344;11.120;2023-04-01T07:49:39;96074.00;;;12.70
18219;BMP180;9234;49.344;11.120;2023-04-01T07:52:19;96078.00;;;12.60
18219;BMP180;9234;49.344;11.120;2023-04-01T07:55:05;96091.00;;;12.50
18219;BMP180;9234;49.344;11.120;2023-04-01T07:57:43;96091.00;;;12.40
18219;BMP180;9234;49.344;11.120;2023-04-01T08:00:21;96094.00;;;12.50
18219;BMP180;9234;49.344;11.120;2023-04-01T08:03:20;96089.00;;;12.50
18219;BMP180;9234;49.344;11.120;2023-04-01T08:05:57;96093.00;;;12.50
18219;BMP180;9234;49.344;11.120;2023-04-01T08:08:41;96107.00;;;12.40
18219;BMP180;9234;49.344;11.120;2023-04-01T08:11:50;96087.00;;;12.50
18219;BMP180;9234;49.344;11.120;2023-04-01T08:14:55;96094.00;;;12.40
18219;BMP180;9234;49.344;11.120;2023-04-01T08:17:45;96093.00;;;12.40
18219;BMP180;9234;49.344;11.120;2023-04-01T08:20:28;96098.00;;;12.50
18219;BMP180;9234;49.344;11.120;2023-04-01T08:23:07;96099.00;;;12.50
18219;BMP180;9234;49.344;11.120;2023-04-01T08:25:48;96095.00;;;12.60
18219;BMP180;9234;49.344;11.120;2023-04-01T08:28:24;96092.00;;;12.60
18219;BMP180;9234;49.344;11.120;2023-04-01T08:31:03;96087.00;;;12.40
18219;BMP180;9234;49.344;11.120;2023-04-01T08:33:34;96097.00;;;12.50
18219;BMP180;9234;49.344;11.120;2023-04-01T08:36:15;96104.00;;;12.50
18219;BMP180;9234;49.344;11.120;2023-04-01T08:38:54;96109.00;;;12.50
18219;BMP180;9234;49.344;11.120;2023-04-01T08:41:53;96088.00;;;12.50
18219;BMP180;9234;49.344;11.120;2023-04-01T08:45:15;96097.00;;;12.50
18219;BMP180;9234;49.344;11.120;2023-04-01T08:48:27;96091.00;;;12.50
18219;BMP180;9234;49.344;11.120;2023-04-01T08:54:42;96081.00;;;12.40
18219;BMP180;9234;49.344;11.120;2023-04-01T08:57:37;96084.00;;;12.60
18219;BMP180;9234;49.344;11.120;2023-04-01T09:00:46;96090.00;;;12.60
18219;BMP180;9234;49.344;11.120;2023-04-01T09:04:06;96082.00;;;12.70
18219;BMP180;9234;49.344;11.120;2023-04-01T09:07:00;96095.00;;;12.80
18219;BMP180;9234;49.344;11.120;2023-04-01T09:10:16;96102.00;;;12.90
18219;BMP180;9234;49.344;11.120;2023-04-01T09:16:16;96095.00;;;13.00
18219;BMP180;9234;49.344;11.120;2023-04-01T09:19:11;96100.00;;;13.10
18219;BMP180;9234;49.344;11.120;2023-04-01T09:22:36;96100.00;;;13.10
18219;BMP180;9234;49.344;11.120;2023-04-01T09:25:38;96106.00;;;13.00
18219;BMP180;9234;49.344;11.120;2023-04-01T09:28:20;96091.00;;;12.80
18219;BMP180;9234;49.344;11.120;2023-04-01T09:34:51;96097.00;;;12.60
18219;BMP180;9234;49.344;11.120;2023-04-01T09:37:35;96090.00;;;12.60
18219;BMP180;9234;49.344;11.120;2023-04-01T09:40:28;96104.00;;;12.60
18219;BMP180;9234;49.344;11.120;2023-04-01T09:43:26;96102.00;;;12.60
18219;BMP180;9234;49.344;11.120;2023-04-01T09:46:20;96096.00;;;12.60
18219;BMP180;9234;49.344;11.120;2023-04-01T09:52:19;96112.00;;;12.60
18219;BMP180;9234;49.344;11.120;2023-04-01T09:55:06;96103.00;;;12.60
18219;BMP180;9234;49.344;11.120;2023-04-01T09:58:13;96093.00;;;12.50
18219;BMP180;9234;49.344;11.120;2023-04-01T10:02:10;96116.00;;;12.50
18219;BMP180;9234;49.344;11.120;2023-04-01T10:05:45;96107.00;;;12.50
18219;BMP180;9234;49.344;11.120;2023-04-01T10:09:00;96111.00;;;12.50
18219;BMP180;9234;49.344;11.120;2023-04-01T10:12:10;96102.00;;;12.40
18219;BMP180;9234;49.344;11.120;2023-04-01T10:15:27;96103.00;;;12.30
18219;BMP180;9234;49.344;11.120;2023-04-01T10:18:55;96109.00;;;12.30
18219;BMP180;9234;49.344;11.120;2023-04-01T10:22:02;96132.00;;;12.30
18219;BMP180;9234;49.344;11.120;2023-04-01T10:28:29;96112.00;;;12.40
18219;BMP180;9234;49.344;11.120;2023-04-01T10:35:03;96115.00;;;12.70
18219;BMP180;9234;49.344;11.120;2023-04-01T10:41:34;96104.00;;;13.00
18219;BMP180;9234;49.344;11.120;2023-04-01T10:44:58;96111.00;;;13.00
18219;BMP180;9234;49.344;11.120;2023-04-01T10:48:31;96098.00;;;12.80
18219;BMP180;9234;49.344;11.120;2023-04-01T10:51:52;96092.00;;;12.70
18219;BMP180;9234;49.344;11.120;2023-04-01T10:55:15;96102.00;;;12.60
18219;BMP180;9234;49.344;11.120;2023-04-01T10:58:58;96102.00;;;12.50
18219;BMP180;9234;49.344;11.120;2023-04-01T11:06:13;96086.00;;;12.30
18219;BMP180;9234;49.344;11.120;2023-04-01T11:16:47;96097.00;;;12.20
18219;BMP180;9234;49.344;11.120;2023-04-01T11:23:04;96100.00;;;12.20
18219;BMP180;9234;49.344;11.120;2023-04-01T11:26:09;96104.00;;;12.10
18219;BMP180;9234;49.344;11.120;2023-04-01T11:29:25;96097.00;;;12.10
18219;BMP180;9234;49.344;11.120;2023-04-01T11:35:43;96111.00;;;12.20
18219;BMP180;9234;49.344;11.120;2023-04-01T11:38:38;96117.00;;;12.30
18219;BMP180;9234;49.344;11.120;2023-04-01T11:41:38;96105.00;;;12.30
18219;BMP180;9234;49.344;11.120;2023-04-01T11:44:30;96113.00;;;12.30
18219;BMP180;9234;49.344;11.120;2023-04-01T11:47:40;96090.00;;;12.30
18219;BMP180;9234;49.344;11.120;2023-04-01T11:50:27;96098.00;;;12.50
18219;BMP180;9234;49.344;11.120;2023-04-01T11:53:18;96107.00;;;12.60
18219;BMP180;9234;49.344;11.120;2023-04-01T11:56:09;96108.00;;;12.60
18219;BMP180;9234;49.344;11.120;2023-04-01T12:02:17;96121.00;;;12.50
18219;BMP180;9234;49.344;11.120;2023-04-01T12:08:09;96119.00;;;12.20
18219;BMP180;9234;49.344;11.120;2023-04-01T12:10:45;96114.00;;;12.10
18219;BMP180;9234;49.344;11.120;2023-04-01T12:13:33;96133.00;;;12.00
18219;BMP180;9234;49.344;11.120;2023-04-01T12:16:29;96123.00;;;11.90
18219;BMP180;9234;49.344;11.120;2023-04-01T12:19:19;96122.00;;;11.90
18219;BMP180;9234;49.344;11.120;2023-04-01T12:22:10;96133.00;;;11.90
18219;BMP180;9234;49.344;11.120;2023-04-01T12:24:47;96123.00;;;12.00
18219;BMP180;9234;49.344;11.120;2023-04-01T12:27:39;96120.00;;;12.10
18219;BMP180;9234;49.344;11.120;2023-04-01T12:30:53;96123.00;;;12.20
18219;BMP180;9234;49.344;11.120;2023-04-01T12:33:56;96123.00;;;12.20
18219;BMP180;9234;49.344;11.120;2023-04-01T12:36:49;96127.00;;;12.30
18219;BMP180;9234;49.344;11.120;2023-04-01T12:39:37;96120.00;;;12.20
18219;BMP180;9234;49.344;11.120;2023-04-01T12:42:31;96129.00;;;12.20
18219;BMP180;9234;49.344;11.120;2023-04-01T12:45:28;96130.00;;;12.20
18219;BMP180;9234;49.344;11.120;2023-04-01T12:48:30;96144.00;;;12.10
18219;BMP180;9234;49.344;11.120;2023-04-01T12:51:47;96133.00;;;12.00
18219;BMP180;9234;49.344;11.120;2023-04-01T13:01:26;96120.00;;;11.70
18219;BMP180;9234;49.344;11.120;2023-04-01T13:04:56;96116.00;;;11.70
18219;BMP180;9234;49.344;11.120;2023-04-01T13:07:53;96135.00;;;11.70
18219;BMP180;9234;49.344;11.120;2023-04-01T13:10:41;96125.00;;;11.80
18219;BMP180;9234;49.344;11.120;2023-04-01T13:13:43;96126.00;;;11.80
18219;BMP180;9234;49.344;11.120;2023-04-01T13:16:18;96135.00;;;11.90
18219;BMP180;9234;49.344;11.120;2023-04-01T13:18:59;96135.00;;;11.90
18219;BMP180;9234;49.344;11.120;2023-04-01T13:21:44;96139.00;;;11.80
18219;BMP180;9234;49.344;11.120;2023-04-01T13:24:35;96135.00;;;11.80
18219;BMP180;9234;49.344;11.120;2023-04-01T13:27:14;96143.00;;;11.70
18219;BMP180;9234;49.344;11.120;2023-04-01T13:30:00;96147.00;;;11.80
18219;BMP180;9234;49.344;11.120;2023-04-01T13:32:40;96139.00;;;11.70
18219;BMP180;9234;49.344;11.120;2023-04-01T13:35:28;96149.00;;;11.80
18219;BMP180;9234;49.344;11.120;2023-04-01T13:38:24;96129.00;;;11.80
18219;BMP180;9234;49.344;11.120;2023-04-01T13:41:07;96139.00;;;11.70
18219;BMP180;9234;49.344;11.120;2023-04-01T13:43:45;96140.00;;;11.70
18219;BMP180;9234;49.344;11.120;2023-04-01T13:46:56;96138.00;;;11.80
18219;BMP180;9234;49.344;11.120;2023-04-01T13:50:05;96144.00;;;11.90
18219;BMP180;9234;49.344;11.120;2023-04-01T13:52:53;96151.00;;;12.00
18219;BMP180;9234;49.344;11.120;2023-04-01T13:55:49;96144.00;;;12.00
18219;BMP180;9234;49.344;11.120;2023-04-01T13:58:55;96145.00;;;12.10
18219;BMP180;9234;49.344;11.120;2023-04-01T14:01:38;96158.00;;;12.10
18219;BMP180;9234;49.344;11.120;2023-04-01T14:05:00;96142.00;;;12.00
18219;BMP180;9234;49.344;11.120;2023-04-01T14:07:50;96171.00;;;12.10
18219;BMP180;9234;49.344;11.120;2023-04-01T14:10:33;96150.00;;;12.20
18219;BMP180;9234;49.344;11.120;2023-04-01T14:17:57;96153.00;;;12.40
18219;BMP180;9234;49.344;11.120;2023-04-01T14:20:37;96159.00;;;12.50
18219;BMP180;9234;49.344;11.120;2023-04-01T14:23:52;96161.00;;;12.60
18219;BMP180;9234;49.344;11.120;2023-04-01T14:26:56;96169.00;;;12.60
18219;BMP180;9234;49.344;11.120;2023-04-01T14:29:37;96164.00;;;12.50
18219;BMP180;9234;49.344;11.120;2023-04-01T14:32:16;96156.00;;;12.40
18219;BMP180;9234;49.344;11.120;2023-04-01T14:35:11;96163.00;;;12.30
18219;BMP180;9234;49.344;11.120;2023-04-01T14:38:41;96169.00;;;12.20
18219;BMP180;9234;49.344;11.120;2023-04-01T14:41:21;96163.00;;;12.00
18219;BMP180;9234;49.344;11.120;2023-04-01T14:44:24;96169.00;;;12.00
18219;BMP180;9234;49.344;11.120;2023-04-01T14:50:17;96173.00;;;11.80
18219;BMP180;9234;49.344;11.120;2023-04-01T14:52:57;96151.00;;;11.70
18219;BMP180;9234;49.344;11.120;2023-04-01T14:55:34;96169.00;;;11.60
18219;BMP180;9234;49.344;11.120;2023-04-01T14:58:13;96175.00;;;11.60
18219;BMP180;9234;49.344;11.120;2023-04-01T15:00:52;96166.00;;;11.60
18219;BMP180;9234;49.344;11.120;2023-04-01T15:03:30;96159.00;;;11.60
18219;BMP180;9234;49.344;11.120;2023-04-01T15:06:35;96173.00;;;11.60
18219;BMP180;9234;49.344;11.120;2023-04-01T15:09:17;96167.00;;;11.60
18219;BMP180;9234;49.344;11.120;2023-04-01T15:12:12;96166.00;;;11.60
18219;BMP180;9234;49.344;11.120;2023-04-01T15:15:05;96171.00;;;11.60
18219;BMP180;9234;49.344;11.120;2023-04-01T15:17:58;96176.00;;;11.60
18219;BMP180;9234;49.344;11.120;2023-04-01T15:21:13;96174.00;;;11.60
18219;BMP180;9234;49.344;11.120;2023-04-01T15:23:57;96180.00;;;11.70
18219;BMP180;9234;49.344;11.120;2023-04-01T15:27:03;96163.00;;;11.70
18219;BMP180;9234;49.344;11.120;2023-04-01T15:30:12;96173.00;;;11.70
18219;BMP180;9234;49.344;11.120;2023-04-01T15:32:58;96176.00;;;11.70
18219;BMP180;9234;49.344;11.120;2023-04-01T15:35:49;96178.00;;;11.60
18219;BMP180;9234;49.344;11.120;2023-04-01T15:38:34;96190.00;;;11.60
18219;BMP180;9234;49.344;11.120;2023-04-01T15:41:14;96194.00;;;11.60
18219;BMP180;9234;49.344;11.120;2023-04-01T15:43:47;96201.00;;;11.60
18219;BMP180;9234;49.344;11.120;2023-04-01T15:46:40;96203.00;;;11.50
18219;BMP180;9234;49.344;11.120;2023-04-01T15:49:31;96206.00;;;11.50
18219;BMP180;9234;49.344;11.120;2023-04-01T15:52:15;96203.00;;;11.50
18219;BMP180;9234;49.344;11.120;2023-04-01T15:55:19;96201.00;;;11.50
18219;BMP180;9234;49.344;11.120;2023-04-01T15:58:16;96205.00;;;11.40
18219;BMP180;9234;49.344;11.120;2023-04-01T16:01:05;96193.00;;;11.40
18219;BMP180;9234;49.344;11.120;2023-04-01T16:03:42;96203.00;;;11.40
18219;BMP180;9234;49.344;11.120;2023-04-01T16:06:49;96206.00;;;11.30
18219;BMP180;9234;49.344;11.120;2023-04-01T16:09:59;96212.00;;;11.30
18219;BMP180;9234;49.344;11.120;2023-04-01T16:12:53;96227.00;;;11.30
18219;BMP180;9234;49.344;11.120;2023-04-01T16:15:38;96212.00;;;11.30
18219;BMP180;9234;49.344;11.120;2023-04-01T16:18:36;96229.00;;;11.20
18219;BMP180;9234;49.344;11.120;2023-04-01T16:21:19;96234.00;;;11.20
18219;BMP180;9234;49.344;11.120;2023-04-01T16:23:55;96234.00;;;11.20
18219;BMP180;9234;49.344;11.120;2023-04-01T16:26:29;96232.00;;;11.20
18219;BMP180;9234;49.344;11.120;2023-04-01T16:29:10;96235.00;;;11.30
18219;BMP180;9234;49.344;11.120;2023-04-01T16:31:51;96228.00;;;11.20
18219;BMP180;9234;49.344;11.120;2023-04-01T16:34:30;96230.00;;;11.20
18219;BMP180;9234;49.344;11.120;2023-04-01T16:37:09;96237.00;;;11.20
18219;BMP180;9234;49.344;11.120;2023-04-01T16:39:47;96240.00;;;11.20
18219;BMP180;9234;49.344;11.120;2023-04-01T16:42:30;96245.00;;;11.20
18219;BMP180;9234;49.344;11.120;2023-04-01T16:45:15;96245.00;;;11.10
18219;BMP180;9234;49.344;11.120;2023-04-01T16:47:49;96244.00;;;11.10
18219;BMP180;9234;49.344;11.120;2023-04-01T16:50:23;96247.00;;;11.10
18219;BMP180;9234;49.344;11.120;2023-04-01T16:53:01;96261.00;;;11.10
18219;BMP180;9234;49.344;11.120;2023-04-01T16:55:49;96252.00;;;11.10